Terminal Aerodrome Forecast
Issued by NWS

Home | Current Version | Previous Version | Text Only | Print | Product List | Glossary Off
Versions: 1 2 3 4 5 6 7 8 9 10 11 12 13 14 15 16 17 18 19 20 21

000
FTUS43 KGRB 222300
TAFAUW
TAF
KAUW 222320Z 2300/2324 23007KT P6SM SCT015 SCT110 BKN250
     FM230300 22010KT P6SM SCT015 BKN110 WS015/23030KT
      TEMPO 2303/2307 BKN015
     FM230700 23011KT P6SM OVC015 WS015/24035KT
     FM231400 24012G20KT P6SM SCT015 OVC070 PROB30 2316/2319 5SM
      -SNPL BR BKN015
     FM231900 25011KT 6SM -SN SCT015 OVC025
      TEMPO 2319/2322 4SM -SN BR BKN012
     FM232200 27008KT 5SM -FZDZSN BR OVC008=

USA.gov is the U.S. government's official web portal to all federal, state and local government web resources and services.